Tahiti/Papeete, French Polynesia
Current Conditions -  °F | °C
As of 1:00 AM on Friday 24 Oct 2014 (Local Time) from NTAA Reporting Station
Broken Clouds Broken Clouds  
Wind Chill: 77°   Ceiling: 6000
Heat Index: 78°   Visibility: 6mi
Dew Point: 72°   Wind: 0mph
Humidity: 83%   Direction: NA
Pressure: 29.88"   Gusts: NA
Location:  17.69°S, 149.38°W
Report Text: NTAA 241000Z 00000KT 9999 FEW020 BKN060 25/22 Q1012 NOSIG
Loading
Personal Weather Stations






























Interactive Weather Map
Tropical Storm Tracking
New forecast layout! Learn more

10-Day Weather Forecast

Advertisements
Track Severe Weather on mobile